createdAt,value
2022-09-21T00:01:07.111Z,100205.59
2022-09-21T00:04:10.873Z,100208.06
2022-09-21T00:07:13.465Z,100210.75
2022-09-21T00:10:20.429Z,100213.47
2022-09-21T00:13:24.312Z,100205.69
2022-09-21T00:16:28.610Z,100207.84
2022-09-21T00:19:31.332Z,100205.06
2022-09-21T00:22:34.970Z,100208.09
2022-09-21T00:25:38.800Z,100218.34
2022-09-21T00:28:41.884Z,100213.22
2022-09-21T00:31:45.937Z,100218.06
2022-09-21T00:34:48.790Z,100217.53
2022-09-21T00:37:51.448Z,100217.28
2022-09-21T00:40:54.701Z,100212.94
2022-09-21T00:44:16.262Z,100216.56
2022-09-21T00:47:21.238Z,100219.03
2022-09-21T00:50:26.731Z,100219.94
2022-09-21T00:53:30.774Z,100223.31
2022-09-21T00:56:34.365Z,100220.41
2022-09-21T00:59:38.448Z,100220.41
2022-09-21T01:02:40.981Z,100226.81
2022-09-21T01:05:44.116Z,100219.75
2022-09-21T01:08:47.947Z,100217.72
2022-09-21T01:12:11.157Z,100222.22
2022-09-21T01:15:17.691Z,100228.97
2022-09-21T01:18:20.524Z,100217.38
2022-09-21T01:21:26.745Z,100222.31
2022-09-21T01:24:35.780Z,100227.03
2022-09-21T01:28:14.163Z,100227.03
2022-09-21T01:31:19.061Z,100233.22
2022-09-21T01:34:25.486Z,100229.94
2022-09-21T01:37:52.450Z,100233.13
2022-09-21T01:41:02.907Z,100225.69
2022-09-21T01:44:10.752Z,100243.00
2022-09-21T01:47:13.306Z,100239.06
2022-09-21T01:50:18.457Z,100234.47
2022-09-21T01:53:20.959Z,100243.78
2022-09-21T01:56:29.684Z,100237.72
2022-09-21T01:59:43.048Z,100242.66
2022-09-21T02:02:50.817Z,100237.37
2022-09-21T02:05:53.987Z,100236.59
2022-09-21T02:08:56.735Z,100242.34
2022-09-21T02:12:01.453Z,100237.72
2022-09-21T02:15:04.636Z,100240.63
2022-09-21T02:18:09.201Z,100249.41
2022-09-21T02:21:15.273Z,100239.41
2022-09-21T02:24:27.330Z,100248.16
2022-09-21T02:27:29.893Z,100239.03
2022-09-21T02:30:35.687Z,100245.88
2022-09-21T02:33:41.236Z,100241.97
2022-09-21T02:36:53.553Z,100242.84
2022-09-21T02:39:56.280Z,100246.31
2022-09-21T02:43:31.527Z,100244.63
2022-09-21T02:46:36.985Z,100247.88
2022-09-21T02:49:41.805Z,100250.56
2022-09-21T02:52:44.291Z,100250.87
2022-09-21T02:55:55.631Z,100259.03
2022-09-21T02:58:59.983Z,100260.16
2022-09-21T03:02:02.936Z,100252.84
2022-09-21T03:05:05.862Z,100254.88
2022-09-21T03:08:11.104Z,100258.22
2022-09-21T03:11:18.504Z,100256.94
2022-09-21T03:14:23.082Z,100268.06
2022-09-21T03:17:27.805Z,100265.81
2022-09-21T03:20:34.760Z,100263.56
2022-09-21T03:23:38.800Z,100269.22
2022-09-21T03:26:43.732Z,100269.78
2022-09-21T03:29:46.654Z,100268.00
2022-09-21T03:32:51.334Z,100279.72
2022-09-21T03:35:54.190Z,100285.22
2022-09-21T03:38:57.046Z,100286.56
2022-09-21T03:42:00.501Z,100292.06
2022-09-21T03:45:04.854Z,100296.12
2022-09-21T03:48:07.979Z,100295.34
2022-09-21T03:51:10.875Z,100289.94
2022-09-21T03:54:13.497Z,100295.81
2022-09-21T03:57:16.338Z,100292.75
2022-09-21T04:00:19.062Z,100296.28
2022-09-21T04:03:22.428Z,100296.00
2022-09-21T04:06:26.261Z,100302.97
2022-09-21T04:09:29.477Z,100297.16
2022-09-21T04:12:37.262Z,100299.28
2022-09-21T04:15:40.749Z,100297.66
2022-09-21T04:18:45.537Z,100300.16
2022-09-21T04:21:51.504Z,100313.22
2022-09-21T04:24:55.173Z,100306.03
2022-09-21T04:27:58.459Z,100306.97
2022-09-21T13:49:40.862Z,100243.25
2022-09-21T13:52:48.206Z,100249.09
2022-09-21T13:55:53.949Z,100242.69
2022-09-21T13:58:57.513Z,100243.03
2022-09-21T14:02:02.453Z,100250.13
2022-09-21T14:05:24.273Z,100244.19
2022-09-21T14:08:33.422Z,100234.66
2022-09-21T14:11:40.065Z,100244.66
2022-09-21T14:14:43.415Z,100234.84
2022-09-21T14:17:46.461Z,100240.72
2022-09-21T14:21:17.276Z,100239.38
2022-09-21T14:24:21.079Z,100241.06
2022-09-21T14:27:25.424Z,100238.44
2022-09-21T14:30:29.905Z,100234.50
2022-09-21T14:33:35.198Z,100223.97
2022-09-21T14:36:41.997Z,100234.25
2022-09-21T14:39:44.791Z,100229.16
2022-09-21T14:42:47.692Z,100236.63
2022-09-21T14:46:10.383Z,100239.00
2022-09-21T14:49:14.391Z,100233.03
2022-09-21T14:52:35.941Z,100240.09
2022-09-21T14:55:48.059Z,100243.97
2022-09-21T14:59:02.611Z,100239.88
2022-09-21T15:02:22.233Z,100244.81
2022-09-21T15:05:38.094Z,100248.62
2022-09-21T15:09:05.028Z,100236.44
2022-09-21T15:12:19.351Z,100241.50
2022-09-21T15:15:24.895Z,100252.28
2022-09-21T15:18:36.481Z,100254.44
2022-09-21T15:21:43.475Z,100236.78
2022-09-21T15:24:59.510Z,100260.38
2022-09-21T15:28:23.369Z,100253.84
2022-09-21T15:31:26.373Z,100257.00
2022-09-21T15:34:32.439Z,100261.72
2022-09-21T15:37:36.219Z,100257.00
2022-09-21T15:40:49.750Z,100258.97
2022-09-21T15:44:06.096Z,100247.78
2022-09-21T15:47:18.526Z,100256.44
2022-09-21T15:50:22.284Z,100260.00
2022-09-21T15:53:30.734Z,100252.38
2022-09-21T15:56:40.711Z,100258.38
2022-09-21T15:59:44.565Z,100268.88
2022-09-21T16:03:07.085Z,100265.00
2022-09-21T16:06:28.133Z,100267.91
2022-09-21T16:09:49.047Z,100282.62
2022-09-21T16:12:52.007Z,100276.09
2022-09-21T16:16:01.700Z,100280.69
2022-09-21T16:19:11.069Z,100289.56
2022-09-21T16:22:14.917Z,100292.84
2022-09-21T16:25:30.632Z,100289.91
2022-09-21T16:32:33.203Z,100289.28
2022-09-21T16:35:42.743Z,100303.03
2022-09-21T16:38:50.416Z,100299.09
2022-09-21T16:42:01.755Z,100299.62
2022-09-21T16:53:16.165Z,100308.94
2022-09-21T17:03:49.067Z,100320.72
2022-09-21T17:14:59.554Z,100320.56
2022-09-21T17:34:36.903Z,100347.78
2022-09-21T17:49:17.784Z,100351.91
2022-09-21T18:05:39.271Z,100363.16
2022-09-21T18:17:12.483Z,100377.25
2022-09-21T20:06:54.409Z,100388.47
2022-09-21T20:10:08.481Z,100396.78
2022-09-21T20:13:33.228Z,100408.22
2022-09-21T20:17:01.456Z,100412.19
2022-09-21T20:20:16.232Z,100403.88
2022-09-21T20:31:48.039Z,100398.34
